Time;durP1;ratioP1;P1;durP2;ratioP2;P2;SDS_P1;SDS_P2;PMS_P1;PMS_P2;Temp;Humidity;BMP_temperature;BMP_pressure;BME280_temperature;BME280_humidity;BME280_pressure;Samples;Min_cycle;Max_cycle;Signal;HPM_P1;HPM_P2
2022/11/11 00:00:40;;;;;;;10.43;3.92;;;15.30;66.60;;;;;;2347411;57;21101;-56
2022/11/11 00:03:07;;;;;;;8.30;2.87;;;15.30;66.20;;;;;;2347145;57;21540;-58
2022/11/11 00:05:34;;;;;;;9.32;2.97;;;15.30;66.30;;;;;;2346936;57;21512;-58
2022/11/11 00:08:01;;;;;;;5.03;2.97;;;15.20;66.50;;;;;;2347084;57;21058;-58
2022/11/11 00:10:30;;;;;;;8.88;2.90;;;15.30;66.60;;;;;;2347246;57;21133;-57
2022/11/11 00:12:59;;;;;;;6.55;3.28;;;15.20;66.60;;;;;;2347443;57;22130;-55
2022/11/11 00:15:27;;;;;;;17.08;3.80;;;15.20;66.60;;;;;;2347325;57;21113;-54
2022/11/11 00:26:14;;;;;;;10.85;4.18;;;15.10;67.10;;;;;;2347212;57;21065;-58
2022/11/11 00:28:42;;;;;;;10.60;3.75;;;15.10;67.10;;;;;;2347231;57;21033;-58
2022/11/11 00:31:11;;;;;;;10.02;4.40;;;15.00;67.90;;;;;;2347520;57;21516;-57
2022/11/11 00:33:38;;;;;;;9.57;4.20;;;15.00;67.30;;;;;;2347167;57;21026;-55
2022/11/11 00:36:07;;;;;;;9.88;4.20;;;15.00;67.30;;;;;;2347021;57;21037;-55
2022/11/11 00:38:46;;;;;;;7.43;3.47;;;15.10;67.40;;;;;;2347330;57;21035;-59
2022/11/11 00:41:16;;;;;;;9.65;4.87;;;15.10;67.50;;;;;;2347402;57;21544;-58
2022/11/11 00:43:45;;;;;;;15.07;4.40;;;15.00;67.50;;;;;;2347290;57;21045;-62
2022/11/11 00:51:44;;;;;;;7.32;3.53;;;15.00;67.90;;;;;;2346754;57;21037;-55
2022/11/11 00:54:11;;;;;;;11.55;4.50;;;15.00;68.20;;;;;;2347354;57;21101;-58
2022/11/11 00:56:39;;;;;;;9.93;5.40;;;14.90;68.10;;;;;;2347391;57;21576;-58
2022/11/11 00:59:07;;;;;;;11.68;4.53;;;14.90;68.20;;;;;;2347372;57;22096;-56
2022/11/11 01:01:36;;;;;;;11.82;4.65;;;15.00;68.50;;;;;;2347150;57;21560;-58
2022/11/11 01:04:05;;;;;;;7.43;4.43;;;15.00;68.20;;;;;;2347087;57;21160;-59
2022/11/11 01:06:32;;;;;;;8.98;4.82;;;15.00;68.10;;;;;;2347258;57;21093;-59
2022/11/11 01:09:04;;;;;;;10.70;4.78;;;15.00;68.00;;;;;;2347127;57;21053;-60
2022/11/11 01:11:32;;;;;;;8.57;4.25;;;15.00;68.00;;;;;;2346738;57;21113;-58
2022/11/11 01:13:59;;;;;;;10.18;5.07;;;14.90;68.00;;;;;;2347402;57;21042;-57
2022/11/11 01:16:27;;;;;;;8.05;4.53;;;15.00;68.20;;;;;;2347081;57;21113;-57
2022/11/11 01:18:55;;;;;;;11.90;4.90;;;15.00;68.30;;;;;;2347134;57;21058;-58
2022/11/11 01:21:24;;;;;;;8.98;4.25;;;15.10;68.10;;;;;;2347047;57;21054;-55
2022/11/11 01:23:52;;;;;;;10.25;5.18;;;15.10;68.10;;;;;;2347422;57;21477;-58
2022/11/11 01:26:22;;;;;;;8.30;4.65;;;15.00;68.10;;;;;;2347317;57;21050;-58
2022/11/11 01:28:49;;;;;;;12.10;4.55;;;15.00;68.20;;;;;;2347577;57;21521;-59
2022/11/11 01:31:18;;;;;;;11.57;4.78;;;15.00;68.40;;;;;;2347502;57;21062;-59
2022/11/11 01:33:45;;;;;;;8.65;4.55;;;15.00;68.40;;;;;;2347181;57;21528;-58
2022/11/11 01:36:15;;;;;;;10.88;4.35;;;15.00;68.50;;;;;;2347034;57;22131;-58
2022/11/11 01:38:42;;;;;;;10.95;4.93;;;14.90;68.50;;;;;;2347557;57;21792;-57
2022/11/11 01:43:59;;;;;;;9.98;4.87;;;15.00;68.40;;;;;;2347429;57;21001;-58
2022/11/11 01:46:32;;;;;;;11.35;5.00;;;15.00;68.40;;;;;;2347237;57;21101;-57
2022/11/11 01:49:18;;;;;;;9.43;4.87;;;15.00;68.40;;;;;;2347779;57;21089;-57
2022/11/11 01:51:54;;;;;;;13.32;4.55;;;15.00;68.60;;;;;;2347347;57;21061;-57
2022/11/11 01:54:25;;;;;;;14.07;5.05;;;15.00;68.60;;;;;;2347079;57;21021;-55
2022/11/11 01:56:57;;;;;;;9.90;5.68;;;15.00;69.30;;;;;;2347426;57;21034;-58
2022/11/11 01:59:25;;;;;;;9.88;4.60;;;15.00;68.60;;;;;;2347415;57;21667;-56
2022/11/11 02:01:53;;;;;;;9.73;4.65;;;15.00;68.70;;;;;;2347253;57;21159;-59
2022/11/11 02:07:09;;;;;;;14.43;5.75;;;15.00;68.70;;;;;;2347553;57;20973;-58
2022/11/11 02:09:42;;;;;;;15.07;5.78;;;15.00;68.70;;;;;;2347202;57;21591;-55
2022/11/11 02:14:58;;;;;;;10.85;4.57;;;15.00;68.90;;;;;;2347421;57;21014;-57
2022/11/11 02:17:29;;;;;;;7.93;4.40;;;15.00;69.00;;;;;;2347271;57;21510;-59
2022/11/11 02:20:00;;;;;;;15.00;5.95;;;15.00;69.10;;;;;;2347466;57;21528;-56
2022/11/11 02:22:36;;;;;;;9.65;5.15;;;14.90;69.00;;;;;;2347358;57;21073;-57
2022/11/11 02:25:07;;;;;;;8.88;4.65;;;14.90;69.00;;;;;;2347387;57;21565;-54
2022/11/11 02:27:37;;;;;;;10.70;4.65;;;15.00;69.10;;;;;;2347425;57;21576;-59
2022/11/11 02:30:14;;;;;;;13.10;5.07;;;15.00;69.10;;;;;;2347236;57;21552;-57
2022/11/11 02:32:43;;;;;;;11.93;5.10;;;15.00;68.90;;;;;;2347305;57;21050;-57
2022/11/11 02:35:16;;;;;;;10.98;4.47;;;15.00;68.90;;;;;;2347274;57;21065;-56
2022/11/11 02:37:48;;;;;;;6.90;4.68;;;15.00;69.10;;;;;;2347360;57;21050;-59
2022/11/11 02:40:20;;;;;;;11.38;4.62;;;15.10;69.20;;;;;;2347611;57;21630;-57
2022/11/11 02:42:47;;;;;;;10.32;4.60;;;15.10;68.90;;;;;;2347274;57;21038;-57
2022/11/11 02:45:14;;;;;;;9.45;4.78;;;15.00;68.80;;;;;;2347431;57;21117;-57
2022/11/11 02:47:42;;;;;;;12.10;4.22;;;15.10;69.00;;;;;;2346931;57;21472;-60
2022/11/11 02:50:10;;;;;;;9.98;4.68;;;15.10;68.90;;;;;;2347288;57;21038;-57
2022/11/11 02:52:37;;;;;;;11.30;4.78;;;15.10;68.70;;;;;;2347270;57;21093;-57
2022/11/11 02:55:07;;;;;;;6.72;4.37;;;15.10;68.60;;;;;;2346405;57;21061;-57
2022/11/11 02:57:35;;;;;;;11.73;5.07;;;15.10;68.60;;;;;;2347413;57;21627;-56
2022/11/11 03:00:03;;;;;;;10.55;5.25;;;15.10;68.30;;;;;;2347503;57;21622;-60
2022/11/11 03:02:31;;;;;;;12.73;5.53;;;15.10;68.30;;;;;;2347355;57;21054;-59
2022/11/11 03:04:58;;;;;;;12.95;6.00;;;15.10;68.20;;;;;;2347433;57;21687;-60
2022/11/11 03:07:25;;;;;;;9.80;5.07;;;15.10;68.10;;;;;;2347141;57;21041;-57
2022/11/11 03:09:53;;;;;;;7.68;4.62;;;15.10;68.30;;;;;;2347419;57;21529;-59
2022/11/11 03:12:20;;;;;;;7.55;4.53;;;15.10;68.40;;;;;;2347208;57;21580;-57
2022/11/11 03:14:47;;;;;;;12.07;4.97;;;15.10;68.30;;;;;;2347397;57;21212;-59
2022/11/11 03:22:59;;;;;;;13.18;5.40;;;15.00;68.30;;;;;;2594377;53;21505;-57
2022/11/11 03:25:39;;;;;;;9.40;4.70;;;15.00;68.40;;;;;;2347445;57;21049;-58
2022/11/11 03:28:07;;;;;;;9.88;5.07;;;14.90;68.30;;;;;;2347398;57;21052;-57
2022/11/11 03:30:35;;;;;;;12.90;4.82;;;14.90;68.30;;;;;;2347369;57;21065;-57
2022/11/11 03:33:03;;;;;;;10.32;4.47;;;15.00;68.60;;;;;;2347354;57;21535;-59
2022/11/11 03:35:30;;;;;;;8.98;5.15;;;14.90;68.60;;;;;;2347375;57;22153;-58
2022/11/11 03:38:22;;;;;;;13.62;5.60;;;14.90;68.60;;;;;;2347243;57;21041;-54
2022/11/11 03:40:51;;;;;;;10.98;5.10;;;14.90;68.70;;;;;;2347103;57;21675;-57
2022/11/11 03:43:20;;;;;;;12.40;5.47;;;14.80;68.60;;;;;;2347366;57;21580;-59
2022/11/11 03:45:47;;;;;;;10.70;5.10;;;14.80;68.80;;;;;;2347302;57;21062;-59
2022/11/11 03:48:15;;;;;;;10.63;5.18;;;14.80;69.00;;;;;;2347389;57;21599;-56
2022/11/11 03:50:42;;;;;;;20.15;5.30;;;14.90;69.00;;;;;;2347702;57;21045;-59
2022/11/11 03:53:09;;;;;;;10.00;5.22;;;14.80;69.00;;;;;;2347379;57;21136;-58
2022/11/11 03:55:36;;;;;;;12.73;5.05;;;14.80;69.00;;;;;;2346906;57;21129;-56
2022/11/11 03:58:04;;;;;;;14.00;4.95;;;14.80;69.10;;;;;;2347455;57;21049;-60
2022/11/11 04:00:31;;;;;;;12.55;5.78;;;14.80;69.10;;;;;;2347157;57;21599;-58
2022/11/11 04:11:35;;;;;;;11.55;4.85;;;14.80;69.20;;;;;;2347080;57;21093;-56
2022/11/11 04:16:52;;;;;;;11.27;5.15;;;14.80;69.30;;;;;;2347421;57;21045;-60
2022/11/11 04:22:05;;;;;;;10.05;4.75;;;14.80;69.10;;;;;;2347401;57;21499;-56
2022/11/11 04:27:19;;;;;;;10.20;5.25;;;14.80;69.20;;;;;;2347222;57;21567;-60
2022/11/11 04:29:47;;;;;;;13.50;5.70;;;14.80;69.30;;;;;;2347097;57;21176;-59
2022/11/11 04:35:03;;;;;;;11.25;4.90;;;14.80;69.20;;;;;;2347378;57;21074;-57
2022/11/11 04:37:33;;;;;;;13.85;5.40;;;14.80;69.20;;;;;;2347457;57;21083;-56
2022/11/11 04:42:45;;;;;;;12.15;5.80;;;14.80;69.10;;;;;;2347096;57;20985;-59
2022/11/11 04:45:30;;;;;;;12.27;6.03;;;14.70;69.30;;;;;;2347265;57;21629;-56
2022/11/11 04:47:58;;;;;;;14.25;6.07;;;14.70;69.20;;;;;;2347360;57;21725;-59
2022/11/11 04:50:28;;;;;;;12.68;5.45;;;14.70;69.20;;;;;;2347298;57;21045;-59
2022/11/11 04:52:55;;;;;;;11.55;5.82;;;14.70;69.30;;;;;;2347369;57;21637;-57
2022/11/11 04:58:08;;;;;;;11.20;5.80;;;14.60;69.30;;;;;;2347373;57;21136;-59
2022/11/11 05:00:36;;;;;;;9.05;4.87;;;14.60;69.40;;;;;;2347091;57;21527;-58
2022/11/11 05:03:15;;;;;;;9.68;5.43;;;14.60;69.40;;;;;;2347459;57;21121;-56
2022/11/11 05:11:23;;;;;;;13.75;6.78;;;14.60;69.50;;;;;;2347167;57;21545;-57
2022/11/11 05:22:16;;;;;;;9.27;5.60;;;14.50;69.50;;;;;;2346788;57;21113;-57
2022/11/11 05:27:29;;;;;;;18.10;6.87;;;14.50;69.30;;;;;;2347458;57;21030;-58
2022/11/11 05:29:56;;;;;;;12.63;6.75;;;14.50;69.40;;;;;;2347521;57;21049;-60
2022/11/11 05:32:24;;;;;;;16.92;7.30;;;14.40;69.60;;;;;;2346995;57;21054;-59
2022/11/11 05:34:52;;;;;;;16.05;6.28;;;14.40;69.80;;;;;;2347501;57;21663;-58
2022/11/11 05:37:19;;;;;;;16.20;8.65;;;14.40;70.00;;;;;;2347436;57;21564;-58
2022/11/11 05:39:46;;;;;;;13.00;7.45;;;14.40;69.70;;;;;;2347386;57;21050;-58
2022/11/11 05:42:14;;;;;;;14.13;7.30;;;14.40;70.00;;;;;;2347577;57;21045;-57
2022/11/11 05:44:41;;;;;;;19.27;8.63;;;14.40;69.90;;;;;;2346846;57;21061;-56
2022/11/11 05:47:09;;;;;;;14.90;6.87;;;14.40;69.70;;;;;;2347531;57;21701;-60
2022/11/11 05:49:36;;;;;;;12.65;6.78;;;14.40;70.00;;;;;;2347376;57;21564;-58
2022/11/11 05:52:05;;;;;;;14.45;7.05;;;14.40;70.10;;;;;;2347098;57;21124;-58
2022/11/11 05:54:32;;;;;;;12.88;6.85;;;14.40;69.90;;;;;;2347353;57;21524;-57
2022/11/11 05:56:59;;;;;;;11.52;7.55;;;14.40;69.90;;;;;;2347297;57;21116;-58
2022/11/11 05:59:27;;;;;;;15.43;8.18;;;14.30;70.80;;;;;;2347311;57;21034;-57
2022/11/11 06:01:54;;;;;;;17.42;9.25;;;14.30;70.10;;;;;;2347337;57;21105;-59
2022/11/11 06:04:21;;;;;;;18.02;8.50;;;14.30;70.10;;;;;;2347396;57;21037;-58
2022/11/11 06:06:48;;;;;;;18.67;9.20;;;14.30;70.40;;;;;;2347309;57;21532;-58
2022/11/11 06:09:15;;;;;;;16.02;8.82;;;14.30;70.20;;;;;;2347432;57;21096;-57
2022/11/11 06:11:43;;;;;;;19.62;9.93;;;14.30;70.10;;;;;;2347247;57;21056;-59
2022/11/11 06:14:10;;;;;;;20.42;10.27;;;14.20;70.10;;;;;;2347437;57;21045;-58
2022/11/11 06:16:37;;;;;;;16.80;9.00;;;14.20;70.10;;;;;;2347106;57;21557;-58
2022/11/11 06:19:04;;;;;;;20.75;10.95;;;14.20;70.30;;;;;;2347514;57;21615;-57
2022/11/11 06:21:55;;;;;;;25.20;10.38;;;14.30;70.10;;;;;;2346902;57;21589;-56
2022/11/11 06:24:22;;;;;;;14.52;8.52;;;14.30;70.00;;;;;;2347159;57;21033;-55
2022/11/11 06:26:50;;;;;;;16.15;9.07;;;14.20;70.10;;;;;;2347053;57;21108;-58
2022/11/11 06:29:17;;;;;;;14.85;10.02;;;14.30;70.30;;;;;;2347295;57;21093;-62
2022/11/11 06:31:44;;;;;;;20.70;9.38;;;14.20;70.20;;;;;;2347061;57;21053;-61
2022/11/11 06:34:11;;;;;;;18.80;9.57;;;14.30;70.30;;;;;;2347066;57;22193;-61
2022/11/11 06:36:39;;;;;;;20.40;9.90;;;14.30;70.20;;;;;;2347094;57;21108;-61
2022/11/11 06:39:06;;;;;;;17.50;9.32;;;14.30;70.40;;;;;;2347162;57;21050;-62
2022/11/11 06:41:33;;;;;;;23.60;10.00;;;14.30;70.80;;;;;;2347115;57;21108;-62
2022/11/11 06:44:00;;;;;;;20.58;10.43;;;14.30;70.10;;;;;;2347330;57;21125;-61
2022/11/11 06:46:28;;;;;;;20.23;9.88;;;14.30;70.20;;;;;;2346729;57;21033;-60
2022/11/11 06:48:56;;;;;;;20.10;11.05;;;14.30;70.90;;;;;;2347436;57;21580;-61
2022/11/11 06:51:23;;;;;;;20.85;11.07;;;14.30;70.20;;;;;;2347011;57;21049;-62
2022/11/11 06:53:51;;;;;;;20.20;11.02;;;14.30;70.20;;;;;;2347333;57;21104;-61
2022/11/11 06:56:18;;;;;;;19.58;11.15;;;14.20;70.30;;;;;;2347133;57;21050;-62
2022/11/11 06:58:45;;;;;;;19.08;9.10;;;14.20;70.30;;;;;;2347368;57;21054;-62
2022/11/11 07:01:13;;;;;;;18.62;10.85;;;14.20;70.40;;;;;;2347291;57;21109;-61
2022/11/11 07:03:41;;;;;;;19.58;10.20;;;14.20;70.50;;;;;;2346932;57;21158;-62
2022/11/11 07:06:08;;;;;;;19.33;11.12;;;14.20;70.70;;;;;;2347482;57;21600;-63
2022/11/11 07:08:35;;;;;;;16.35;10.70;;;14.20;70.60;;;;;;2347343;57;21098;-61
2022/11/11 07:11:03;;;;;;;20.10;9.85;;;14.20;70.50;;;;;;2347263;57;21094;-61
2022/11/11 07:13:30;;;;;;;20.73;11.45;;;14.30;70.80;;;;;;2347423;57;21042;-62
2022/11/11 07:15:57;;;;;;;19.95;10.52;;;14.20;70.60;;;;;;2347116;57;21045;-61
2022/11/11 07:18:24;;;;;;;21.92;11.85;;;14.30;70.70;;;;;;2347258;57;21532;-61
2022/11/11 07:20:51;;;;;;;19.00;11.30;;;14.30;70.70;;;;;;2347035;57;21061;-62
2022/11/11 07:23:18;;;;;;;22.80;11.30;;;14.30;70.80;;;;;;2347015;57;21041;-60
2022/11/11 07:25:46;;;;;;;22.58;11.98;;;14.30;70.90;;;;;;2347355;57;21061;-62
2022/11/11 07:28:13;;;;;;;22.45;10.88;;;14.30;70.90;;;;;;2347228;57;21372;-62
2022/11/11 07:30:41;;;;;;;23.02;11.55;;;14.30;71.00;;;;;;2347359;57;21465;-62
2022/11/11 07:33:08;;;;;;;24.58;12.27;;;14.30;71.00;;;;;;2347200;57;22236;-61
2022/11/11 07:35:35;;;;;;;20.20;11.63;;;14.30;71.20;;;;;;2347136;57;21093;-61
2022/11/11 07:38:03;;;;;;;26.20;12.45;;;14.30;71.20;;;;;;2347355;57;21061;-60
2022/11/11 07:40:30;;;;;;;23.98;12.20;;;14.30;71.40;;;;;;2347387;57;21374;-63
2022/11/11 07:42:57;;;;;;;24.90;12.20;;;14.30;71.40;;;;;;2347066;57;21034;-62
2022/11/11 07:45:24;;;;;;;21.17;12.15;;;14.30;71.40;;;;;;2347276;57;21141;-60
2022/11/11 07:47:51;;;;;;;26.62;13.82;;;14.30;71.50;;;;;;2346738;57;21085;-62
2022/11/11 07:50:19;;;;;;;19.52;11.70;;;14.30;71.40;;;;;;2347409;57;21066;-62
2022/11/11 07:52:49;;;;;;;25.27;13.05;;;14.20;71.50;;;;;;2346697;57;21089;-61
2022/11/11 07:55:17;;;;;;;18.73;11.35;;;14.20;71.60;;;;;;2347203;57;21563;-60
2022/11/11 07:57:44;;;;;;;30.02;13.27;;;14.30;71.70;;;;;;2346930;57;21610;-62
2022/11/11 08:00:14;;;;;;;17.95;11.60;;;14.30;71.60;;;;;;2347089;57;21514;-62
2022/11/11 08:02:45;;;;;;;23.90;13.93;;;14.30;71.80;;;;;;2347317;57;21041;-62
2022/11/11 08:05:12;;;;;;;28.35;13.05;;;14.30;71.60;;;;;;2357284;53;21006;-60
2022/11/11 08:07:41;;;;;;;23.55;12.50;;;14.30;71.50;;;;;;2247008;60;21076;-60
2022/11/11 08:10:10;;;;;;;24.85;13.50;;;14.30;71.60;;;;;;2247279;60;21559;-60
2022/11/11 08:15:23;;;;;;;25.80;12.35;;;14.30;71.60;;;;;;2246882;60;21590;-60
2022/11/11 08:17:50;;;;;;;23.70;14.43;;;14.30;71.70;;;;;;2246920;60;21082;-60
2022/11/11 08:20:17;;;;;;;26.10;14.73;;;14.30;71.70;;;;;;2247245;60;21189;-60
2022/11/11 08:22:44;;;;;;;24.77;15.05;;;14.40;71.40;;;;;;2246401;60;21717;-60
2022/11/11 08:25:13;;;;;;;27.30;14.20;;;14.30;71.50;;;;;;2246782;60;21072;-61
2022/11/11 08:27:40;;;;;;;26.87;14.13;;;14.30;71.70;;;;;;2247172;60;21578;-60
2022/11/11 08:30:10;;;;;;;23.52;13.10;;;14.30;72.00;;;;;;2246745;60;21131;-61
2022/11/11 08:32:37;;;;;;;25.50;13.52;;;14.30;72.00;;;;;;2245912;60;21079;-61
2022/11/11 08:35:06;;;;;;;24.75;12.52;;;14.30;72.00;;;;;;2244136;60;21072;-61
2022/11/11 08:37:34;;;;;;;22.98;12.48;;;14.30;72.10;;;;;;2246853;60;21554;-61
2022/11/11 08:40:01;;;;;;;25.83;13.10;;;14.40;72.20;;;;;;2246692;60;21099;-61
2022/11/11 08:42:28;;;;;;;27.10;14.38;;;14.30;72.10;;;;;;2245601;60;21697;-61
2022/11/11 08:47:30;;;;;;;31.33;16.87;;;14.30;72.00;;;;;;2335523;57;27778;-60
2022/11/11 08:49:58;;;;;;;25.55;12.93;;;14.20;73.90;;;;;;2347427;57;21121;-60
2022/11/11 08:52:25;;;;;;;26.42;13.30;;;14.30;73.40;;;;;;2346247;57;21493;-60
2022/11/11 08:54:52;;;;;;;23.77;14.43;;;14.40;72.70;;;;;;2346824;57;21038;-61
2022/11/11 08:57:19;;;;;;;22.50;12.98;;;14.40;72.20;;;;;;2344723;57;21113;-62
2022/11/11 08:59:46;;;;;;;21.05;13.65;;;14.50;72.30;;;;;;2345548;57;21101;-61
2022/11/11 09:02:14;;;;;;;23.23;13.48;;;14.50;72.20;;;;;;2345305;57;21152;-62
2022/11/11 09:04:42;;;;;;;25.65;14.50;;;14.40;72.30;;;;;;2345174;57;21612;-59
2022/11/11 09:07:10;;;;;;;23.77;13.45;;;14.50;72.40;;;;;;2344783;57;21069;-60
2022/11/11 09:09:37;;;;;;;20.80;12.95;;;14.50;72.60;;;;;;2345659;57;22609;-60
2022/11/11 09:12:05;;;;;;;25.10;13.25;;;14.50;72.30;;;;;;2345373;57;21568;-60
2022/11/11 09:14:32;;;;;;;28.65;15.90;;;14.50;72.30;;;;;;2345026;57;21042;-60
2022/11/11 09:16:59;;;;;;;26.83;13.85;;;14.50;72.30;;;;;;2345077;57;21537;-60
2022/11/11 09:19:26;;;;;;;24.40;13.25;;;14.50;72.40;;;;;;2343665;57;21062;-60
2022/11/11 09:21:54;;;;;;;26.50;13.60;;;14.50;72.50;;;;;;2344691;57;21058;-60
2022/11/11 09:24:21;;;;;;;27.05;13.73;;;14.50;72.60;;;;;;2344018;57;21580;-60
2022/11/11 09:26:49;;;;;;;24.65;13.85;;;14.50;72.60;;;;;;2345165;57;21057;-60
2022/11/11 09:29:16;;;;;;;24.12;13.88;;;14.60;72.70;;;;;;2346442;57;21553;-60
2022/11/11 09:31:44;;;;;;;25.20;13.80;;;14.50;72.40;;;;;;2346685;57;21572;-60
2022/11/11 09:34:11;;;;;;;22.58;12.80;;;14.60;72.40;;;;;;2346660;57;21042;-60
2022/11/11 09:36:38;;;;;;;20.27;12.50;;;14.60;72.50;;;;;;2344939;57;21034;-60
2022/11/11 09:39:06;;;;;;;21.85;13.35;;;14.50;72.40;;;;;;2345336;57;21626;-60
2022/11/11 09:41:45;;;;;;;25.05;14.32;;;14.50;72.50;;;;;;2345057;57;21521;-60
2022/11/11 09:44:25;;;;;;;25.17;13.57;;;14.50;72.50;;;;;;2345793;57;21030;-60
2022/11/11 09:47:02;;;;;;;27.42;13.68;;;14.50;72.50;;;;;;2346404;57;21524;-58
2022/11/11 09:49:49;;;;;;;26.87;12.23;;;14.50;72.60;;;;;;2346642;57;21516;-60
2022/11/11 09:52:19;;;;;;;24.20;12.02;;;14.50;72.40;;;;;;2346277;57;21573;-60
2022/11/11 09:54:53;;;;;;;27.87;13.38;;;14.60;72.60;;;;;;2346590;57;21528;-60
2022/11/11 09:57:29;;;;;;;22.10;12.57;;;14.60;72.50;;;;;;2346653;57;22111;-60
2022/11/11 09:59:59;;;;;;;23.17;12.63;;;14.50;72.50;;;;;;2345561;57;21492;-60
2022/11/11 10:02:34;;;;;;;26.02;13.40;;;14.60;72.50;;;;;;2345793;57;21507;-61
2022/11/11 10:05:08;;;;;;;19.30;12.52;;;14.60;72.50;;;;;;2345642;57;21105;-60
2022/11/11 10:07:39;;;;;;;27.05;13.52;;;14.60;72.30;;;;;;2345625;57;21109;-60
2022/11/11 10:10:21;;;;;;;22.80;14.18;;;14.60;72.30;;;;;;2345192;57;21568;-59
2022/11/11 10:12:55;;;;;;;22.40;14.02;;;14.60;72.30;;;;;;2345721;57;21129;-59
2022/11/11 10:15:26;;;;;;;25.02;12.88;;;14.60;72.10;;;;;;2345842;57;21529;-60
2022/11/11 10:18:08;;;;;;;24.35;14.63;;;14.60;72.30;;;;;;2345694;57;21097;-59
2022/11/11 10:20:40;;;;;;;18.98;13.07;;;14.60;72.10;;;;;;2345711;57;21050;-60
2022/11/11 10:23:14;;;;;;;22.08;13.10;;;14.60;72.30;;;;;;2345825;57;21026;-58
2022/11/11 10:25:47;;;;;;;22.13;12.37;;;14.70;72.50;;;;;;2345021;57;21161;-61
2022/11/11 10:28:16;;;;;;;;;;;14.60;72.20;;;;;;2349299;57;22056;-60
2022/11/11 10:30:45;;;;;;;20.92;13.00;;;14.70;72.20;;;;;;2345838;57;20083;-60
2022/11/11 10:33:16;;;;;;;20.35;13.57;;;14.70;71.90;;;;;;2345586;57;21025;-60
2022/11/11 10:35:46;;;;;;;17.52;11.52;;;14.60;72.00;;;;;;2345668;57;21121;-60
2022/11/11 10:38:32;;;;;;;28.23;14.52;;;14.60;72.30;;;;;;2345292;57;21113;-60
2022/11/11 10:41:10;;;;;;;23.17;14.00;;;14.60;72.20;;;;;;2344661;57;21099;-61
2022/11/11 10:43:37;;;;;;;24.27;13.32;;;14.60;72.10;;;;;;2345836;57;21589;-61
2022/11/11 10:46:09;;;;;;;21.85;14.18;;;14.70;72.30;;;;;;2345580;57;21525;-61
2022/11/11 10:48:44;;;;;;;22.37;13.62;;;14.70;72.20;;;;;;2345779;57;21113;-60
2022/11/11 10:51:13;;;;;;;24.65;13.62;;;14.70;72.20;;;;;;2345677;57;21086;-59
2022/11/11 10:53:48;;;;;;;24.33;14.43;;;14.70;72.20;;;;;;2345773;57;21093;-60
2022/11/11 10:56:22;;;;;;;21.90;13.60;;;14.70;71.90;;;;;;2344033;57;21504;-61
2022/11/11 10:58:55;;;;;;;19.55;12.50;;;14.70;71.80;;;;;;2345669;57;21513;-61
2022/11/11 11:01:41;;;;;;;20.12;12.27;;;14.70;71.60;;;;;;2346051;57;21034;-61
2022/11/11 11:04:21;;;;;;;25.45;12.40;;;14.70;71.60;;;;;;2345988;57;21910;-60
2022/11/11 11:06:49;;;;;;;20.12;12.70;;;14.80;71.40;;;;;;2345478;57;21502;-61
2022/11/11 11:09:22;;;;;;;20.60;12.60;;;14.80;71.40;;;;;;2345831;57;21046;-60
2022/11/11 11:14:31;;;;;;;31.83;14.25;;;14.80;71.20;;;;;;2354090;57;22552;-50
2022/11/11 11:17:07;;;;;;;22.62;13.05;;;14.80;70.90;;;;;;2347319;57;21041;-59
2022/11/11 11:19:35;;;;;;;20.02;11.70;;;14.80;70.80;;;;;;2347489;57;21552;-60
2022/11/11 11:22:03;;;;;;;23.20;12.70;;;14.90;70.50;;;;;;2346528;57;21061;-59
2022/11/11 11:24:32;;;;;;;20.62;13.15;;;14.90;70.20;;;;;;2343785;57;21034;-61
2022/11/11 11:27:01;;;;;;;24.98;12.25;;;14.90;69.70;;;;;;2346194;57;21643;-61
2022/11/11 11:29:32;;;;;;;20.88;11.90;;;14.80;69.40;;;;;;2346996;57;21100;-60
2022/11/11 11:34:56;;;;;;;21.77;14.10;;;14.90;69.50;;;;;;2336700;57;33202;-61
2022/11/11 11:37:25;;;;;;;24.98;12.52;;;14.70;69.80;;;;;;2348126;57;21062;-61
2022/11/11 11:40:00;;;;;;;20.42;11.63;;;14.90;69.30;;;;;;2347975;57;21606;-61
2022/11/11 11:42:29;;;;;;;21.37;12.48;;;14.90;69.20;;;;;;2347857;57;21545;-61
2022/11/11 11:44:57;;;;;;;18.00;11.12;;;15.00;68.80;;;;;;2348190;57;21050;-60
2022/11/11 11:47:37;;;;;;;19.30;10.88;;;15.00;69.50;;;;;;2348322;57;21101;-61
2022/11/11 11:50:20;;;;;;;20.67;11.90;;;15.10;68.50;;;;;;2349110;57;21504;-61
2022/11/11 11:55:27;;;;;;;20.75;11.35;;;15.10;68.20;;;;;;2344685;57;22840;-59
2022/11/11 11:58:12;;;;;;;20.02;10.48;;;15.00;68.30;;;;;;2347205;57;21054;-60
2022/11/11 12:00:50;;;;;;;23.45;11.48;;;15.00;68.50;;;;;;2347445;57;21497;-60
2022/11/11 12:03:39;;;;;;;21.15;12.35;;;15.00;68.50;;;;;;2347039;57;21666;-60
2022/11/11 12:06:17;;;;;;;18.15;11.52;;;15.00;68.30;;;;;;2346907;57;21026;-60
2022/11/11 12:09:00;;;;;;;21.50;12.82;;;15.00;68.40;;;;;;2347896;57;21041;-60
2022/11/11 12:11:35;;;;;;;21.75;12.77;;;15.10;68.30;;;;;;2347594;57;21579;-60
2022/11/11 12:14:24;;;;;;;20.25;11.80;;;15.10;68.30;;;;;;2346907;57;21539;-57
2022/11/11 12:16:55;;;;;;;21.55;12.40;;;15.10;68.00;;;;;;2346535;57;21528;-59
2022/11/11 12:19:41;;;;;;;17.85;11.00;;;15.10;68.00;;;;;;2346879;57;21556;-61
2022/11/11 12:22:24;;;;;;;19.45;11.55;;;15.10;68.20;;;;;;2347439;57;21545;-61
2022/11/11 12:25:02;;;;;;;20.67;11.30;;;15.10;68.00;;;;;;2347834;57;21041;-60
2022/11/11 12:27:34;;;;;;;23.90;13.05;;;15.10;68.00;;;;;;2347448;57;21512;-60
2022/11/11 12:30:07;;;;;;;17.00;10.90;;;15.10;67.90;;;;;;2346177;57;21065;-61
2022/11/11 12:33:08;;;;;;;20.08;10.82;;;15.10;68.00;;;;;;2347887;57;21046;-61
2022/11/11 12:35:50;;;;;;;20.27;12.37;;;15.10;68.20;;;;;;2342649;57;21504;-60
2022/11/11 12:38:44;;;;;;;24.00;12.68;;;15.10;67.80;;;;;;2346729;57;21089;-60
2022/11/11 12:41:24;;;;;;;20.30;11.45;;;15.00;68.10;;;;;;2347478;57;21529;-61
2022/11/11 12:44:01;;;;;;;23.60;13.95;;;15.10;68.30;;;;;;2347974;57;21603;-61
2022/11/11 12:46:39;;;;;;;22.37;12.32;;;15.10;68.10;;;;;;2347560;57;21153;-61
2022/11/11 12:49:25;;;;;;;21.77;12.07;;;15.10;67.90;;;;;;2347387;57;21125;-61
2022/11/11 12:52:01;;;;;;;24.20;13.27;;;15.10;68.10;;;;;;2348014;57;21411;-61
2022/11/11 12:54:39;;;;;;;23.15;12.60;;;15.10;67.90;;;;;;2347227;57;21046;-60
2022/11/11 12:57:16;;;;;;;21.10;12.35;;;15.10;67.40;;;;;;2347030;57;21572;-61
2022/11/11 13:00:04;;;;;;;20.02;11.77;;;15.10;67.60;;;;;;2347816;57;21493;-61
2022/11/11 13:02:59;;;;;;;23.80;13.02;;;15.10;68.00;;;;;;2347740;57;21568;-60
2022/11/11 13:05:30;;;;;;;17.30;11.57;;;15.10;68.10;;;;;;2347218;57;21038;-58
2022/11/11 13:08:16;;;;;;;19.17;11.75;;;15.10;68.00;;;;;;2346729;57;21042;-60
2022/11/11 13:10:50;;;;;;;19.17;13.10;;;15.00;67.70;;;;;;2346387;57;21050;-58
2022/11/11 13:13:42;;;;;;;24.33;14.18;;;15.00;67.90;;;;;;2345890;57;21544;-60
2022/11/11 13:16:11;;;;;;;25.15;12.10;;;15.00;68.00;;;;;;2346646;57;21501;-60
2022/11/11 13:18:46;;;;;;;19.52;12.90;;;15.00;68.20;;;;;;2346567;57;21529;-60
2022/11/11 13:21:18;;;;;;;21.70;13.30;;;15.00;68.10;;;;;;2346573;57;21595;-60
2022/11/11 13:23:45;;;;;;;20.33;11.60;;;15.00;68.20;;;;;;2346204;57;21601;-60
2022/11/11 13:26:25;;;;;;;20.95;12.90;;;15.00;68.10;;;;;;2345898;57;21048;-59
2022/11/11 13:29:06;;;;;;;18.12;11.43;;;15.00;67.80;;;;;;2346872;57;21592;-60
2022/11/11 13:31:36;;;;;;;21.92;12.80;;;15.00;68.10;;;;;;2346754;57;21095;-61
2022/11/11 13:34:08;;;;;;;19.98;12.20;;;15.00;68.20;;;;;;2346834;57;21536;-60
2022/11/11 13:36:42;;;;;;;18.95;11.57;;;15.00;67.60;;;;;;2346792;57;21042;-59
2022/11/11 13:39:25;;;;;;;20.90;12.57;;;15.00;67.90;;;;;;2346504;57;21061;-60
2022/11/11 13:41:56;;;;;;;20.83;12.30;;;15.00;68.00;;;;;;2346207;57;21580;-60
2022/11/11 13:44:26;;;;;;;17.98;11.32;;;15.00;68.00;;;;;;2346752;57;21046;-61
2022/11/11 13:49:41;;;;;;;21.98;12.43;;;14.90;67.90;;;;;;2356486;57;23059;-59
2022/11/11 13:52:23;;;;;;;17.40;11.30;;;14.90;67.60;;;;;;2347661;57;21041;-60
2022/11/11 13:54:54;;;;;;;18.62;11.32;;;14.90;67.80;;;;;;2347637;57;21521;-60
2022/11/11 13:57:23;;;;;;;19.17;11.30;;;14.90;67.80;;;;;;2345750;57;21533;-59
2022/11/11 13:59:57;;;;;;;18.23;11.57;;;14.90;67.70;;;;;;2346105;57;21097;-60
2022/11/11 14:02:30;;;;;;;19.77;11.82;;;14.90;67.90;;;;;;2346259;57;21168;-60
2022/11/11 14:05:22;;;;;;;17.77;11.18;;;14.80;67.80;;;;;;2346743;57;21089;-59
2022/11/11 14:07:53;;;;;;;20.73;10.93;;;14.80;68.10;;;;;;2346552;57;21094;-60
2022/11/11 14:13:39;;;;;;;22.13;11.88;;;14.80;68.50;;;;;;2355782;57;22058;-59
2022/11/11 14:16:11;;;;;;;16.90;11.60;;;14.80;68.10;;;;;;2346616;57;21131;-59
2022/11/11 14:18:41;;;;;;;17.48;11.20;;;14.80;68.30;;;;;;2346528;57;21516;-60
2022/11/11 14:21:10;;;;;;;19.27;12.80;;;14.80;68.30;;;;;;2345764;57;21516;-59